createdAt,value
2023-01-26T00:01:09.574Z,0.50
2023-01-26T00:03:36.317Z,0.50
2023-01-26T00:06:06.788Z,0.50
2023-01-26T00:08:42.679Z,0.50
2023-01-26T00:11:10.744Z,0.50
2023-01-26T00:13:37.842Z,0.50
2023-01-26T00:16:08.116Z,0.50
2023-01-26T00:18:34.780Z,0.50
2023-01-26T00:21:02.069Z,0.50
2023-01-26T00:23:29.621Z,0.50
2023-01-26T00:25:56.259Z,0.50
2023-01-26T00:28:23.005Z,0.50
2023-01-26T00:30:49.718Z,0.50
2023-01-26T00:33:16.409Z,0.50
2023-01-26T00:35:43.095Z,0.50
2023-01-26T00:38:12.749Z,0.50
2023-01-26T00:40:39.888Z,0.50
2023-01-26T00:43:06.849Z,0.50
2023-01-26T00:45:34.714Z,0.50
2023-01-26T00:48:01.390Z,0.50
2023-01-26T00:50:28.089Z,0.50
2023-01-26T00:52:54.783Z,0.50
2023-01-26T00:55:21.486Z,0.50
2023-01-26T00:57:49.385Z,0.50
2023-01-26T01:00:17.260Z,0.60
2023-01-26T01:02:44.150Z,0.60
2023-01-26T01:05:10.814Z,0.60
2023-01-26T01:07:37.538Z,0.60
2023-01-26T01:10:04.510Z,0.60
2023-01-26T01:12:31.176Z,0.60
2023-01-26T01:14:57.804Z,0.70
2023-01-26T01:17:24.402Z,0.70
2023-01-26T01:19:51.052Z,0.70
2023-01-26T01:22:17.752Z,0.70
2023-01-26T01:24:44.423Z,0.70
2023-01-26T01:27:19.669Z,0.70
2023-01-26T01:29:46.324Z,0.70
2023-01-26T01:32:12.947Z,0.70
2023-01-26T01:34:39.569Z,0.70
2023-01-26T01:37:06.231Z,0.70
2023-01-26T01:39:32.904Z,0.70
2023-01-26T01:41:59.578Z,0.70
2023-01-26T01:44:26.360Z,0.70
2023-01-26T01:46:53.017Z,0.70
2023-01-26T01:49:38.661Z,0.70
2023-01-26T01:52:10.032Z,0.70
2023-01-26T01:54:54.196Z,0.70
2023-01-26T01:57:24.252Z,0.80
2023-01-26T01:59:53.857Z,0.80
2023-01-26T02:02:20.517Z,0.80
2023-01-26T02:04:47.218Z,0.80
2023-01-26T02:07:13.940Z,0.80
2023-01-26T02:09:40.605Z,0.80
2023-01-26T02:12:08.304Z,0.80
2023-01-26T02:14:34.951Z,0.80
2023-01-26T02:17:01.607Z,0.80
2023-01-26T02:19:34.974Z,0.80
2023-01-26T02:22:06.597Z,0.80
2023-01-26T02:24:34.689Z,0.80
2023-01-26T02:27:01.286Z,0.80
2023-01-26T02:29:27.968Z,0.80
2023-01-26T02:31:54.829Z,0.80
2023-01-26T02:34:21.671Z,0.80
2023-01-26T02:36:57.593Z,0.80
2023-01-26T02:39:38.233Z,0.80
2023-01-26T02:42:04.964Z,0.80
2023-01-26T02:44:31.824Z,0.80
2023-01-26T02:46:58.510Z,0.80
2023-01-26T02:49:25.283Z,0.80
2023-01-26T02:51:51.967Z,0.80
2023-01-26T02:54:18.639Z,0.80
2023-01-26T02:56:45.263Z,0.80
2023-01-26T02:59:11.932Z,0.80
2023-01-26T03:01:38.628Z,0.80
2023-01-26T03:04:05.554Z,0.80
2023-01-26T03:06:32.243Z,0.80
2023-01-26T03:08:58.952Z,0.80
2023-01-26T03:11:25.625Z,0.80
2023-01-26T03:13:52.334Z,0.80
2023-01-26T03:16:19.031Z,0.80
2023-01-26T03:18:45.716Z,0.80
2023-01-26T03:21:14.624Z,0.80
2023-01-26T03:23:41.405Z,0.80
2023-01-26T03:26:10.471Z,0.80
2023-01-26T03:28:37.154Z,0.80
2023-01-26T03:31:03.980Z,0.90
2023-01-26T03:33:30.618Z,0.90
2023-01-26T03:35:57.291Z,0.90
2023-01-26T03:38:23.957Z,0.90
2023-01-26T03:40:50.630Z,0.90
2023-01-26T03:43:17.319Z,0.90
2023-01-26T03:45:43.973Z,0.90
2023-01-26T03:48:11.845Z,0.90
2023-01-26T03:50:38.434Z,0.90
2023-01-26T03:53:16.340Z,0.90
2023-01-26T03:55:42.960Z,0.90
2023-01-26T03:58:09.633Z,0.90
2023-01-26T04:00:36.300Z,0.90
2023-01-26T04:03:02.942Z,1.00
2023-01-26T04:05:29.572Z,0.90
2023-01-26T04:08:01.190Z,1.00
2023-01-26T04:10:27.950Z,1.00
2023-01-26T04:12:54.566Z,1.00
2023-01-26T04:15:21.189Z,1.00
2023-01-26T04:17:47.794Z,1.00
2023-01-26T04:20:14.537Z,1.00
2023-01-26T04:22:41.484Z,1.00
2023-01-26T04:25:08.568Z,1.00
2023-01-26T04:27:35.214Z,1.00
2023-01-26T04:30:02.756Z,1.00
2023-01-26T04:32:29.998Z,1.00
2023-01-26T04:34:56.711Z,1.00
2023-01-26T04:37:23.409Z,1.00
2023-01-26T04:39:50.041Z,1.00
2023-01-26T04:42:16.783Z,1.00
2023-01-26T04:44:43.481Z,1.00
2023-01-26T04:47:10.237Z,1.00
2023-01-26T04:49:36.887Z,1.00
2023-01-26T04:52:03.619Z,1.00
2023-01-26T04:54:30.245Z,1.10
2023-01-26T04:56:56.945Z,1.10
2023-01-26T04:59:23.633Z,1.10
2023-01-26T05:01:50.227Z,1.10
2023-01-26T05:04:16.924Z,1.10
2023-01-26T05:06:46.293Z,1.10
2023-01-26T05:09:12.972Z,1.10
2023-01-26T05:12:08.998Z,1.10
2023-01-26T05:14:35.629Z,1.10
2023-01-26T05:17:02.260Z,1.10
2023-01-26T05:19:28.923Z,1.10
2023-01-26T05:21:55.560Z,1.10
2023-01-26T05:24:22.326Z,1.20
2023-01-26T05:26:49.119Z,1.10
2023-01-26T05:29:15.943Z,1.10
2023-01-26T05:31:45.665Z,1.10
2023-01-26T05:34:12.367Z,1.20
2023-01-26T05:36:38.993Z,1.20
2023-01-26T05:39:05.647Z,1.20
2023-01-26T05:41:32.249Z,1.20
2023-01-26T05:43:58.884Z,1.20
2023-01-26T05:46:25.518Z,1.20
2023-01-26T05:48:52.783Z,1.20
2023-01-26T05:51:19.408Z,1.20
2023-01-26T05:53:46.022Z,1.20
2023-01-26T05:56:12.626Z,1.20
2023-01-26T05:58:39.358Z,1.30
2023-01-26T06:01:06.027Z,1.30
2023-01-26T06:03:32.745Z,1.30
2023-01-26T06:05:59.539Z,1.30
2023-01-26T06:08:26.705Z,1.30
2023-01-26T06:11:00.427Z,1.30
2023-01-26T06:13:27.653Z,1.30
2023-01-26T06:15:54.571Z,1.30
2023-01-26T06:18:21.402Z,1.40
2023-01-26T06:20:48.365Z,1.40
2023-01-26T06:23:14.982Z,1.40
2023-01-26T06:25:41.661Z,1.40
2023-01-26T06:28:08.372Z,1.40
2023-01-26T06:30:35.106Z,1.40
2023-01-26T06:33:01.862Z,1.40
2023-01-26T06:35:28.581Z,1.40
2023-01-26T06:37:55.286Z,1.40
2023-01-26T06:40:21.928Z,1.50
2023-01-26T06:42:49.340Z,1.50
2023-01-26T06:45:19.603Z,1.50
2023-01-26T06:47:47.275Z,1.50
2023-01-26T06:50:21.041Z,1.50
2023-01-26T06:52:48.480Z,1.50
2023-01-26T06:55:17.031Z,1.50
2023-01-26T06:57:43.717Z,1.50
2023-01-26T07:00:11.788Z,1.50
2023-01-26T07:02:38.677Z,1.60
2023-01-26T07:05:05.795Z,1.60
2023-01-26T07:07:32.501Z,1.60
2023-01-26T07:09:59.152Z,1.60
2023-01-26T07:12:25.825Z,1.60
2023-01-26T07:14:52.523Z,1.60
2023-01-26T07:17:19.175Z,1.60
2023-01-26T07:19:45.766Z,1.70
2023-01-26T07:22:14.257Z,1.70
2023-01-26T07:24:40.910Z,1.70
2023-01-26T07:27:10.328Z,1.70
2023-01-26T07:29:36.988Z,1.80
2023-01-26T07:32:03.805Z,1.80
2023-01-26T07:34:30.444Z,1.80
2023-01-26T07:36:57.936Z,1.80
2023-01-26T07:39:24.721Z,1.90
2023-01-26T07:41:51.329Z,1.90
2023-01-26T07:44:18.079Z,1.90
2023-01-26T07:46:45.700Z,2.00
2023-01-26T07:49:12.573Z,2.00
2023-01-26T07:51:41.119Z,2.00
2023-01-26T07:54:07.807Z,2.10
2023-01-26T07:56:34.502Z,2.10
2023-01-26T07:59:03.566Z,2.10
2023-01-26T08:01:30.621Z,2.10
2023-01-26T08:03:57.641Z,2.20
2023-01-26T08:06:24.287Z,2.20
2023-01-26T08:09:04.192Z,2.20
2023-01-26T08:11:30.836Z,2.30
2023-01-26T08:13:57.547Z,2.30
2023-01-26T08:16:24.292Z,2.30
2023-01-26T08:18:54.013Z,2.40
2023-01-26T08:21:21.179Z,2.40
2023-01-26T08:23:51.356Z,2.40
2023-01-26T08:26:18.431Z,2.50
2023-01-26T08:28:45.259Z,2.50
2023-01-26T08:31:19.270Z,2.50
2023-01-26T08:33:47.099Z,2.60
2023-01-26T08:36:14.626Z,2.60
2023-01-26T08:38:41.414Z,2.70
2023-01-26T08:41:08.061Z,2.70
2023-01-26T08:43:34.991Z,2.70
2023-01-26T08:46:02.011Z,2.80
2023-01-26T08:48:28.808Z,2.80
2023-01-26T08:50:56.213Z,2.90
2023-01-26T08:53:23.345Z,2.90
2023-01-26T08:55:50.331Z,3.00
2023-01-26T08:58:17.046Z,3.00
2023-01-26T09:00:43.676Z,3.10
2023-01-26T09:03:10.438Z,3.20
2023-01-26T09:05:38.287Z,3.20
2023-01-26T09:08:05.970Z,3.30
2023-01-26T09:10:32.964Z,3.40
2023-01-26T09:12:59.872Z,3.40
2023-01-26T09:15:27.016Z,3.50
2023-01-26T09:17:53.738Z,3.50
2023-01-26T09:20:20.565Z,3.60
2023-01-26T09:22:47.333Z,3.70
2023-01-26T09:25:14.191Z,3.70
2023-01-26T09:27:40.951Z,3.80
2023-01-26T09:30:11.117Z,3.90
2023-01-26T09:32:37.916Z,4.00
2023-01-26T09:35:04.939Z,4.00
2023-01-26T09:37:31.603Z,4.10
2023-01-26T09:40:01.149Z,4.10
2023-01-26T09:42:59.398Z,4.20
2023-01-26T09:45:59.063Z,4.20
2023-01-26T09:48:44.374Z,4.30
2023-01-26T09:51:18.582Z,4.40
2023-01-26T09:53:54.387Z,4.40
2023-01-26T09:56:22.199Z,4.50
2023-01-26T09:58:53.732Z,4.60
2023-01-26T10:01:42.598Z,4.60
2023-01-26T10:04:26.223Z,4.60
2023-01-26T10:06:53.670Z,4.70
2023-01-26T10:09:23.815Z,4.70
2023-01-26T10:11:53.247Z,4.80
2023-01-26T10:14:21.150Z,4.90
2023-01-26T10:16:49.590Z,5.00
2023-01-26T10:19:34.575Z,5.10
2023-01-26T10:22:18.233Z,5.20
2023-01-26T10:24:47.250Z,5.40
2023-01-26T10:27:14.014Z,5.70
2023-01-26T10:29:40.727Z,5.90
2023-01-26T10:32:13.232Z,6.10
2023-01-26T10:34:40.017Z,6.20
2023-01-26T10:37:23.948Z,6.20
2023-01-26T10:40:04.402Z,6.20
2023-01-26T10:42:32.577Z,6.20
2023-01-26T10:45:01.114Z,6.20
2023-01-26T10:47:27.949Z,6.20
2023-01-26T10:50:24.288Z,6.20
2023-01-26T10:53:01.766Z,6.20
2023-01-26T10:55:28.828Z,6.20
2023-01-26T10:57:55.599Z,6.20
2023-01-26T11:00:23.375Z,6.20
2023-01-26T11:02:51.837Z,6.20
2023-01-26T11:05:23.064Z,6.20
2023-01-26T11:07:51.883Z,6.20
2023-01-26T11:10:39.909Z,6.30
2023-01-26T11:13:15.003Z,6.30
2023-01-26T11:15:42.445Z,6.40
2023-01-26T11:18:22.839Z,6.40
2023-01-26T11:21:05.565Z,6.40
2023-01-26T11:23:52.333Z,6.50
2023-01-26T11:26:28.664Z,6.50
2023-01-26T11:29:29.970Z,6.50
2023-01-26T11:32:03.946Z,6.60
2023-01-26T11:34:49.649Z,6.80
2023-01-26T11:37:19.154Z,7.00
2023-01-26T11:40:00.838Z,7.30
2023-01-26T11:42:48.399Z,7.40
2023-01-26T11:45:22.968Z,7.50
2023-01-26T11:48:08.449Z,7.50
2023-01-26T11:50:55.505Z,7.50
2023-01-26T11:53:59.820Z,7.50
2023-01-26T11:56:48.863Z,7.60
2023-01-26T11:59:27.464Z,7.80
2023-01-26T12:01:59.585Z,7.90
2023-01-26T12:04:26.398Z,8.10
2023-01-26T12:07:00.108Z,8.20
2023-01-26T12:09:38.729Z,8.20
2023-01-26T12:12:10.256Z,8.20
2023-01-26T12:15:06.013Z,8.10
2023-01-26T12:17:40.282Z,8.10
2023-01-26T12:20:24.594Z,8.10
2023-01-26T12:23:06.278Z,8.10
2023-01-26T12:25:40.588Z,8.10
2023-01-26T12:28:07.219Z,8.10
2023-01-26T12:30:46.074Z,8.20
2023-01-26T12:33:12.904Z,8.20
2023-01-26T12:35:42.424Z,8.20
2023-01-26T12:38:18.609Z,8.20
2023-01-26T12:40:57.337Z,8.10
2023-01-26T12:43:30.188Z,8.00
2023-01-26T12:45:58.214Z,7.90
2023-01-26T12:48:36.192Z,7.80
2023-01-26T12:51:06.297Z,7.80
2023-01-26T12:54:00.683Z,7.70
2023-01-26T12:56:47.230Z,7.70
2023-01-26T12:59:47.372Z,7.70
2023-01-26T13:02:30.496Z,7.60
2023-01-26T13:04:58.450Z,7.70
2023-01-26T13:07:38.539Z,7.90
2023-01-26T13:10:17.175Z,8.00
2023-01-26T13:12:51.950Z,8.00
2023-01-26T13:15:23.131Z,8.00
2023-01-26T13:17:56.534Z,8.10
2023-01-26T13:20:46.693Z,8.40
2023-01-26T13:23:28.602Z,9.10
2023-01-26T13:26:15.251Z,9.80
2023-01-26T13:28:42.394Z,10.00
2023-01-26T13:31:09.674Z,10.10
2023-01-26T13:33:36.404Z,10.40
2023-01-26T13:36:04.022Z,10.50
2023-01-26T13:38:43.831Z,10.50
2023-01-26T13:41:18.991Z,10.30
2023-01-26T13:44:06.868Z,10.10
2023-01-26T13:46:42.716Z,10.00
2023-01-26T13:49:25.483Z,9.90
2023-01-26T13:51:52.098Z,10.00
2023-01-26T13:54:18.828Z,10.20
2023-01-26T13:57:12.042Z,10.20
2023-01-26T13:59:52.437Z,10.20
2023-01-26T14:02:24.215Z,10.00
2023-01-26T14:04:52.084Z,9.80
2023-01-26T14:07:18.859Z,9.50
2023-01-26T14:09:47.132Z,9.30
2023-01-26T14:12:25.255Z,9.10
2023-01-26T14:14:54.545Z,8.90
2023-01-26T14:17:32.443Z,8.80
2023-01-26T14:19:59.565Z,8.60
2023-01-26T14:22:27.253Z,8.50
2023-01-26T14:24:54.322Z,8.40
2023-01-26T14:27:36.510Z,8.30
2023-01-26T14:30:23.367Z,8.20
2023-01-26T14:32:54.798Z,8.10
2023-01-26T14:35:22.247Z,8.00
2023-01-26T14:37:50.010Z,8.00
2023-01-26T14:40:24.332Z,7.90
2023-01-26T14:42:52.441Z,7.90
2023-01-26T14:45:26.398Z,7.90
2023-01-26T14:47:53.078Z,7.90
2023-01-26T14:50:23.585Z,7.90
2023-01-26T14:52:50.293Z,7.90
2023-01-26T14:55:29.759Z,7.90
2023-01-26T14:57:56.857Z,7.90
2023-01-26T15:00:23.717Z,7.90
2023-01-26T15:02:50.422Z,7.90
2023-01-26T15:05:18.755Z,7.90
2023-01-26T15:08:06.336Z,7.90
2023-01-26T15:10:56.450Z,7.90
2023-01-26T15:13:24.044Z,7.90
2023-01-26T15:16:05.863Z,7.90
2023-01-26T15:18:33.340Z,7.80
2023-01-26T15:21:05.895Z,7.80
2023-01-26T15:23:34.756Z,7.80
2023-01-26T15:26:34.046Z,7.80
2023-01-26T15:29:01.900Z,7.70
2023-01-26T15:31:35.822Z,7.70
2023-01-26T15:34:02.779Z,7.70
2023-01-26T15:36:49.598Z,7.60
2023-01-26T15:39:17.777Z,7.60
2023-01-26T15:41:46.134Z,7.60
2023-01-26T15:44:17.262Z,7.50
2023-01-26T15:46:44.341Z,7.50
2023-01-26T15:49:11.908Z,7.50
2023-01-26T15:51:38.653Z,7.50
2023-01-26T15:54:05.492Z,7.50
2023-01-26T15:56:32.325Z,7.50
2023-01-26T15:58:58.972Z,7.40
2023-01-26T16:01:25.608Z,7.40
2023-01-26T16:03:52.239Z,7.30
2023-01-26T16:06:29.739Z,7.30
2023-01-26T16:08:56.641Z,7.30
2023-01-26T16:11:26.645Z,7.30
2023-01-26T16:14:02.925Z,7.30
2023-01-26T16:16:30.380Z,7.20
2023-01-26T16:18:57.064Z,7.20
2023-01-26T16:21:25.528Z,7.20
2023-01-26T16:23:52.290Z,7.20
2023-01-26T16:26:19.579Z,7.20
2023-01-26T16:28:46.555Z,7.10
2023-01-26T16:31:31.545Z,7.10
2023-01-26T16:33:59.120Z,7.10
2023-01-26T16:36:26.207Z,7.10
2023-01-26T16:38:53.108Z,7.10
2023-01-26T16:41:28.319Z,7.10
2023-01-26T16:44:01.797Z,7.00
2023-01-26T16:46:29.326Z,7.10
2023-01-26T16:48:59.356Z,7.00
2023-01-26T16:51:27.725Z,7.00
2023-01-26T16:53:54.644Z,7.00
2023-01-26T16:56:22.738Z,7.00
2023-01-26T16:58:52.083Z,7.00
2023-01-26T17:01:23.715Z,7.00
2023-01-26T17:03:50.634Z,7.00
2023-01-26T17:06:18.409Z,7.00
2023-01-26T17:08:45.159Z,7.00
2023-01-26T17:11:16.550Z,7.00
2023-01-26T17:13:43.335Z,6.90
2023-01-26T17:16:20.775Z,6.90
2023-01-26T17:18:50.764Z,6.90
2023-01-26T17:21:18.159Z,6.90
2023-01-26T17:23:46.172Z,6.90
2023-01-26T17:26:13.482Z,6.90
2023-01-26T17:28:40.264Z,6.80
2023-01-26T17:31:08.607Z,6.90
2023-01-26T17:33:35.569Z,6.80
2023-01-26T17:36:02.871Z,6.90
2023-01-26T17:38:29.637Z,6.90
2023-01-26T17:40:57.086Z,6.80
2023-01-26T17:43:24.125Z,6.80
2023-01-26T17:45:50.962Z,6.80
2023-01-26T17:48:17.608Z,6.80
2023-01-26T17:50:50.754Z,6.80
2023-01-26T17:53:17.597Z,6.80
2023-01-26T17:55:44.257Z,6.70
2023-01-26T17:58:11.053Z,6.70
2023-01-26T18:00:38.322Z,6.80
2023-01-26T18:03:05.205Z,6.70
2023-01-26T18:05:32.417Z,6.70
2023-01-26T18:07:59.277Z,6.70
2023-01-26T18:10:25.981Z,6.70
2023-01-26T18:12:52.607Z,6.70
2023-01-26T18:15:19.308Z,6.70
2023-01-26T18:17:46.048Z,6.70
2023-01-26T18:20:13.099Z,6.70
2023-01-26T18:22:39.895Z,6.60
2023-01-26T18:25:07.241Z,6.60
2023-01-26T18:27:34.030Z,6.60
2023-01-26T18:30:00.745Z,6.60
2023-01-26T18:32:27.390Z,6.60
2023-01-26T18:34:54.183Z,6.60
2023-01-26T18:37:20.813Z,6.60
2023-01-26T18:39:47.825Z,6.60
2023-01-26T18:42:14.591Z,6.60
2023-01-26T18:44:41.895Z,6.60
2023-01-26T18:47:08.602Z,6.60
2023-01-26T18:49:35.294Z,6.60
2023-01-26T18:52:02.015Z,6.60
2023-01-26T18:54:28.856Z,6.50
2023-01-26T18:56:55.777Z,6.60
2023-01-26T18:59:22.586Z,6.60
2023-01-26T19:01:49.460Z,6.50
2023-01-26T19:04:18.245Z,6.50
2023-01-26T19:06:45.365Z,6.50
2023-01-26T19:09:12.240Z,6.50
2023-01-26T19:11:39.870Z,6.50
2023-01-26T19:14:07.017Z,6.50
2023-01-26T19:16:33.858Z,6.40
2023-01-26T19:19:00.914Z,6.50
2023-01-26T19:21:27.919Z,6.50
2023-01-26T19:23:57.025Z,6.50
2023-01-26T19:26:27.921Z,6.40
2023-01-26T19:28:54.709Z,6.40
2023-01-26T19:31:21.986Z,6.40
2023-01-26T19:33:58.222Z,6.40
2023-01-26T19:36:25.329Z,6.40
2023-01-26T19:38:52.152Z,6.40
2023-01-26T19:41:20.570Z,6.40
2023-01-26T19:43:50.426Z,6.40
2023-01-26T19:46:17.412Z,6.30
2023-01-26T19:48:47.012Z,6.40
2023-01-26T19:51:30.587Z,6.30
2023-01-26T19:53:58.203Z,6.30
2023-01-26T19:56:29.447Z,6.30
2023-01-26T19:59:10.825Z,6.30
2023-01-26T20:01:37.625Z,6.30
2023-01-26T20:04:06.342Z,6.30
2023-01-26T20:06:36.674Z,6.30
2023-01-26T20:09:04.165Z,6.30
2023-01-26T20:11:32.950Z,6.30
2023-01-26T20:14:04.109Z,6.30
2023-01-26T20:16:31.037Z,6.30
2023-01-26T20:18:58.257Z,6.30
2023-01-26T20:21:25.146Z,6.20
2023-01-26T20:23:55.292Z,6.30
2023-01-26T20:26:22.682Z,6.20
2023-01-26T20:28:49.468Z,6.20
2023-01-26T20:31:18.122Z,6.20
2023-01-26T20:33:45.630Z,6.20
2023-01-26T20:36:12.827Z,6.20
2023-01-26T20:38:39.642Z,6.20
2023-01-26T20:41:10.069Z,6.20
2023-01-26T20:43:46.475Z,6.20
2023-01-26T20:46:34.399Z,6.20
2023-01-26T20:49:01.273Z,6.20
2023-01-26T20:51:29.887Z,6.20
2023-01-26T20:53:56.977Z,6.20
2023-01-26T20:56:23.916Z,6.10
2023-01-26T20:58:52.388Z,6.20
2023-01-26T21:01:19.340Z,6.10
2023-01-26T21:03:46.444Z,6.10
2023-01-26T21:06:16.649Z,6.10
2023-01-26T21:08:43.390Z,6.10
2023-01-26T21:11:12.673Z,6.10
2023-01-26T21:13:41.337Z,6.10
2023-01-26T21:16:09.284Z,6.10
2023-01-26T21:18:36.032Z,6.10
2023-01-26T21:21:04.731Z,6.10
2023-01-26T21:23:32.107Z,6.10
2023-01-26T21:25:59.756Z,6.10
2023-01-26T21:28:26.737Z,6.10
2023-01-26T21:31:07.904Z,6.10
2023-01-26T21:33:37.350Z,6.10
2023-01-26T21:36:06.128Z,6.10
2023-01-26T21:38:34.356Z,6.10
2023-01-26T21:41:03.544Z,6.10
2023-01-26T21:43:30.372Z,6.10
2023-01-26T21:46:00.197Z,6.10
2023-01-26T21:48:26.997Z,6.10
2023-01-26T21:50:59.307Z,6.10
2023-01-26T21:53:26.182Z,6.10
2023-01-26T21:55:52.899Z,6.10
2023-01-26T21:58:19.568Z,6.10
2023-01-26T22:00:46.426Z,6.10
2023-01-26T22:03:13.091Z,6.00
2023-01-26T22:05:39.864Z,6.00
2023-01-26T22:08:08.613Z,6.00
2023-01-26T22:10:35.895Z,6.00
2023-01-26T22:13:04.172Z,6.00
2023-01-26T22:15:30.974Z,6.00
2023-01-26T22:17:57.741Z,6.00
2023-01-26T22:20:24.489Z,6.00
2023-01-26T22:22:51.160Z,6.00
2023-01-26T22:25:18.927Z,6.00
2023-01-26T22:27:45.733Z,6.00
2023-01-26T22:30:12.846Z,6.00
2023-01-26T22:32:39.730Z,6.00
2023-01-26T22:35:06.566Z,6.00
2023-01-26T22:37:33.232Z,6.00
2023-01-26T22:40:00.115Z,6.00
2023-01-26T22:42:26.706Z,5.90
2023-01-26T22:44:53.409Z,5.90
2023-01-26T22:47:20.111Z,5.90
2023-01-26T22:49:46.708Z,5.90
2023-01-26T22:52:15.742Z,5.80
2023-01-26T22:54:44.233Z,5.80
2023-01-26T22:57:10.905Z,5.80
2023-01-26T22:59:37.596Z,5.80
2023-01-26T23:02:04.311Z,5.80
2023-01-26T23:04:35.228Z,5.70
2023-01-26T23:07:01.987Z,5.70
2023-01-26T23:09:28.800Z,5.70
2023-01-26T23:11:55.443Z,5.70
2023-01-26T23:14:22.104Z,5.70
2023-01-26T23:16:49.461Z,5.70
2023-01-26T23:19:16.137Z,5.70
2023-01-26T23:21:42.886Z,5.70
2023-01-26T23:24:09.739Z,5.60
2023-01-26T23:26:36.515Z,5.60
2023-01-26T23:29:03.357Z,5.70
2023-01-26T23:31:30.052Z,5.70
2023-01-26T23:33:56.907Z,5.60
2023-01-26T23:36:23.845Z,5.70
2023-01-26T23:38:50.616Z,5.60
2023-01-26T23:41:17.445Z,5.60
2023-01-26T23:43:44.333Z,5.60
2023-01-26T23:46:11.443Z,5.60
2023-01-26T23:48:38.542Z,5.60
2023-01-26T23:51:07.324Z,5.60
2023-01-26T23:53:33.997Z,5.60
2023-01-26T23:56:03.138Z,5.60
2023-01-26T23:58:29.886Z,5.60
